Time;durP1;ratioP1;P1;durP2;ratioP2;P2;SDS_P1;SDS_P2;PMS_P1;PMS_P2;Temp;Humidity;BMP_temperature;BMP_pressure;BME280_temperature;BME280_humidity;BME280_pressure;Samples;Min_cycle;Max_cycle;Signal;HPM_P1;HPM_P2
2022/10/24 00:01:37;;;;;;;0.40;0.30;;;;;;;14.86;62.21;96095.91;5136504;27;20813;-57
2022/10/24 00:04:06;;;;;;;0.43;0.27;;;;;;;15.06;60.08;96093.09;5136835;27;20421;-57
2022/10/24 00:06:34;;;;;;;0.40;0.20;;;;;;;14.87;61.23;96097.50;5136504;27;20788;-57
2022/10/24 00:09:04;;;;;;;0.40;0.20;;;;;;;14.87;59.90;96081.47;5136937;27;20430;-57
2022/10/24 00:11:34;;;;;;;0.40;0.30;;;;;;;14.66;60.79;96095.22;5136474;27;20436;-55
2022/10/24 00:14:03;;;;;;;0.40;0.40;;;;;;;14.83;60.46;96093.78;5136369;27;20423;-56
2022/10/24 00:16:31;;;;;;;0.40;0.20;;;;;;;14.90;60.60;96091.59;5135841;27;21000;-56
2022/10/24 00:18:59;;;;;;;0.40;0.20;;;;;;;15.05;59.63;96086.13;5136290;27;20418;-56
2022/10/24 00:21:28;;;;;;;0.40;0.27;;;;;;;14.91;59.99;96089.72;5136637;27;20437;-56
2022/10/24 00:23:56;;;;;;;0.40;0.20;;;;;;;14.56;61.22;96088.06;5135538;27;20432;-57
2022/10/24 00:26:24;;;;;;;0.40;0.30;;;;;;;14.79;61.57;96082.06;5136026;27;21064;-57
2022/10/24 00:28:54;;;;;;;0.73;0.43;;;;;;;14.86;60.65;96085.22;5135543;27;20740;-57
2022/10/24 00:31:22;;;;;;;1.07;0.30;;;;;;;14.93;59.82;96085.69;5136139;27;20540;-57
2022/10/24 00:33:51;;;;;;;0.40;0.20;;;;;;;14.81;60.21;96087.91;5136385;27;20425;-57
2022/10/24 00:36:21;;;;;;;0.40;0.20;;;;;;;14.83;60.09;96088.44;5135926;27;20483;-57
2022/10/24 00:38:50;;;;;;;0.40;0.30;;;;;;;13.79;63.32;96091.25;5135884;27;20426;-57
2022/10/24 00:41:20;;;;;;;0.93;0.70;;;;;;;13.62;64.87;96096.09;5135967;27;20445;-56
2022/10/24 00:43:49;;;;;;;0.60;0.50;;;;;;;14.08;63.82;96092.25;5135832;27;20421;-56
2022/10/24 00:46:20;;;;;;;0.40;0.37;;;;;;;14.12;63.40;96097.81;5136110;27;20432;-57
2022/10/24 00:48:51;;;;;;;0.70;0.70;;;;;;;14.02;63.60;96091.47;5135944;27;20947;-55
2022/10/24 00:51:23;;;;;;;0.50;0.30;;;;;;;13.44;65.57;96084.13;5135629;27;20414;-55
2022/10/24 00:53:56;;;;;;;0.40;0.30;;;;;;;13.42;64.94;96022.34;5135628;27;20911;-57
2022/10/24 00:56:34;;;;;;;0.40;0.30;;;;;;;14.21;63.42;96101.53;5135857;27;20474;-56
2022/10/24 00:59:05;;;;;;;0.40;0.37;;;;;;;14.01;63.98;96089.84;5135415;27;20429;-56
2022/10/24 01:01:35;;;;;;;0.40;0.30;;;;;;;14.31;63.22;96093.53;5135901;27;20422;-56
2022/10/24 01:04:04;;;;;;;0.40;0.30;;;;;;;13.62;64.78;96083.56;5134435;27;20486;-56
2022/10/24 01:06:49;;;;;;;0.40;0.30;;;;;;;13.56;64.24;96009.28;5135295;27;20434;-56
2022/10/24 01:09:33;;;;;;;0.60;0.60;;;;;;;13.98;63.71;96078.97;5135873;27;20456;-56
2022/10/24 01:12:15;;;;;;;2.60;0.90;;;;;;;13.97;63.56;96080.00;5135738;27;20428;-56
2022/10/24 01:14:51;;;;;;;0.60;0.50;;;;;;;14.27;62.44;96084.47;5135398;27;20442;-56
2022/10/24 01:17:29;;;;;;;0.47;0.47;;;;;;;13.89;64.34;96080.56;5135460;27;20480;-57
2022/10/24 01:20:45;;;;;;;2.20;0.90;;;;;;;14.15;63.03;96095.41;5135183;27;20772;-57
2022/10/24 01:23:54;;;;;;;0.40;0.30;;;;;;;13.36;65.19;96098.78;5071464;28;20449;-57
2022/10/24 01:26:40;;;;;;;2.00;0.57;;;;;;;13.71;65.12;96100.59;5066453;28;20849;-56
2022/10/24 01:29:16;;;;;;;0.40;0.30;;;;;;;13.86;64.52;96100.56;5132968;27;20434;-55
2022/10/24 01:31:51;;;;;;;0.90;0.90;;;;;;;14.01;63.36;96103.19;5135231;27;20429;-56
2022/10/24 01:34:26;;;;;;;0.40;0.30;;;;;;;14.21;62.66;96096.19;5135138;27;20464;-56
2022/10/24 01:37:00;;;;;;;0.60;0.57;;;;;;;14.27;62.61;96085.22;5134685;27;21018;-56
2022/10/24 01:39:33;;;;;;;0.40;0.30;;;;;;;14.23;63.46;96096.72;5134995;27;20421;-56
2022/10/24 01:42:06;;;;;;;0.40;0.30;;;;;;;14.22;62.95;96081.81;5134402;27;20429;-56
2022/10/24 01:44:39;;;;;;;0.40;0.23;;;;;;;14.44;64.66;96104.41;5134462;27;20445;-56
2022/10/24 01:47:12;;;;;;;0.50;0.40;;;;;;;14.44;62.97;96098.28;5134531;27;20422;-56
2022/10/24 01:49:45;;;;;;;0.50;0.40;;;;;;;14.17;63.27;96095.94;5134326;27;20932;-56
2022/10/24 01:52:16;;;;;;;0.40;0.30;;;;;;;14.36;63.75;96088.97;5134480;27;20431;-56
2022/10/24 01:54:46;;;;;;;1.20;0.60;;;;;;;14.02;63.24;96083.47;5134779;27;20415;-56
2022/10/24 01:57:15;;;;;;;0.40;0.30;;;;;;;14.23;63.52;96096.72;5134837;27;20480;-56
2022/10/24 01:59:46;;;;;;;0.90;0.57;;;;;;;14.24;62.58;96099.13;5134406;27;20430;-56
2022/10/24 02:02:20;;;;;;;0.40;0.20;;;;;;;14.16;62.78;96096.22;5134210;27;20422;-57
2022/10/24 02:04:53;;;;;;;0.40;0.20;;;;;;;14.27;62.92;96087.91;5134504;27;20418;-56
2022/10/24 02:07:23;;;;;;;0.73;0.73;;;;;;;14.07;63.15;96103.97;5134228;27;20937;-55
2022/10/24 02:09:55;;;;;;;0.40;0.30;;;;;;;14.10;62.77;96102.63;5134387;27;20433;-56
2022/10/24 02:12:26;;;;;;;3.97;0.57;;;;;;;13.95;63.54;96106.94;5134292;27;20956;-56
2022/10/24 02:15:01;;;;;;;0.40;0.20;;;;;;;14.19;64.06;96104.47;5133829;27;20437;-57
2022/10/24 02:17:31;;;;;;;0.40;0.30;;;;;;;14.19;63.34;96111.69;5134120;27;20828;-56
2022/10/24 02:20:00;;;;;;;0.40;0.30;;;;;;;13.75;64.29;96109.66;5134198;27;20418;-56
2022/10/24 02:22:34;;;;;;;0.40;0.20;;;;;;;13.41;66.31;96100.63;5133831;27;20429;-54
2022/10/24 02:25:05;;;;;;;0.53;0.30;;;;;;;13.58;65.15;96098.50;5134102;27;20504;-55
2022/10/24 02:27:39;;;;;;;0.60;0.60;;;;;;;13.19;67.27;96108.91;5133140;27;20434;-56
2022/10/24 02:30:12;;;;;;;0.40;0.30;;;;;;;13.41;67.07;96115.84;5134027;27;20438;-56
2022/10/24 02:32:46;;;;;;;0.70;0.57;;;;;;;13.50;66.25;96082.25;5133715;27;20433;-56
2022/10/24 02:35:18;;;;;;;0.50;0.43;;;;;;;13.77;65.50;96106.72;5133499;27;20425;-56
2022/10/24 02:37:51;;;;;;;0.40;0.20;;;;;;;13.86;64.83;96116.53;5133663;27;20472;-55
2022/10/24 02:40:21;;;;;;;0.67;0.40;;;;;;;13.97;65.03;96101.34;5133265;27;20448;-56
2022/10/24 02:42:55;;;;;;;0.40;0.30;;;;;;;13.70;64.81;96088.34;5133824;27;20433;-55
2022/10/24 02:45:25;;;;;;;0.40;0.20;;;;;;;13.74;65.36;96100.06;5133399;27;20440;-56
2022/10/24 02:48:01;;;;;;;0.60;0.60;;;;;;;13.84;66.26;96092.03;5133116;27;20417;-56
2022/10/24 02:50:32;;;;;;;0.40;0.30;;;;;;;13.48;66.75;96106.50;5133048;27;20426;-56
2022/10/24 02:53:00;;;;;;;0.40;0.30;;;;;;;12.72;67.80;96097.66;5132939;27;20933;-56
2022/10/24 02:55:28;;;;;;;0.50;0.40;;;;;;;12.86;69.22;96100.59;5133084;27;20432;-55
2022/10/24 02:57:57;;;;;;;0.43;0.40;;;;;;;13.12;68.04;96102.25;5133130;27;20483;-56
2022/10/24 03:00:25;;;;;;;1.97;0.40;;;;;;;13.09;66.69;96084.94;5133143;27;20815;-56
2022/10/24 03:02:54;;;;;;;0.57;0.53;;;;;;;13.23;67.17;96114.50;5133136;27;20430;-56
2022/10/24 03:05:23;;;;;;;0.40;0.30;;;;;;;13.19;66.92;96108.91;5133390;27;20434;-56
2022/10/24 03:07:51;;;;;;;0.60;0.40;;;;;;;12.43;69.51;96094.66;5133392;27;20420;-56
2022/10/24 03:10:19;;;;;;;0.93;0.57;;;;;;;12.74;70.78;96114.13;5133255;27;20434;-56
2022/10/24 03:12:48;;;;;;;0.50;0.40;;;;;;;12.90;68.78;96107.78;5133396;27;20421;-56
2022/10/24 03:15:16;;;;;;;0.40;0.30;;;;;;;12.92;68.67;96118.16;5132967;27;20430;-56
2022/10/24 03:17:47;;;;;;;0.50;0.40;;;;;;;13.29;72.47;96113.41;5132950;27;20484;-56
2022/10/24 03:20:17;;;;;;;0.40;0.30;;;;;;;13.02;70.13;96104.88;5132875;27;20502;-56
2022/10/24 03:22:46;;;;;;;0.40;0.30;;;;;;;13.03;69.04;96114.47;5132999;27;20428;-55
2022/10/24 03:25:14;;;;;;;0.40;0.30;;;;;;;12.80;69.78;96099.75;5132692;27;20469;-56
2022/10/24 03:27:42;;;;;;;0.53;0.53;;;;;;;12.33;73.00;96112.41;5132680;27;20437;-55
2022/10/24 03:30:12;;;;;;;0.80;0.43;;;;;;;12.64;71.29;96120.25;5132531;27;20788;-56
2022/10/24 03:32:40;;;;;;;0.40;0.30;;;;;;;12.84;69.78;96111.50;5132753;27;20421;-56
2022/10/24 03:35:09;;;;;;;0.50;0.30;;;;;;;12.86;69.73;96117.34;5132350;27;20439;-56
2022/10/24 03:37:43;;;;;;;0.40;0.30;;;;;;;12.95;69.22;96117.63;5132571;27;20483;-55
2022/10/24 03:40:12;;;;;;;0.40;0.30;;;;;;;12.61;70.57;96123.41;5132437;27;20425;-56
2022/10/24 03:42:40;;;;;;;0.40;0.30;;;;;;;12.64;69.32;96101.63;5132612;27;20893;-56
2022/10/24 03:45:09;;;;;;;3.17;0.70;;;;;;;12.73;69.06;96118.66;5131992;27;20478;-56
2022/10/24 03:47:38;;;;;;;2.20;0.30;;;;;;;12.73;69.46;96116.00;5132038;27;20428;-55
2022/10/24 03:50:07;;;;;;;0.40;0.30;;;;;;;12.17;71.67;96122.19;5132552;27;20429;-55
2022/10/24 03:52:36;;;;;;;0.40;0.30;;;;;;;12.16;72.26;96120.59;5131829;27;20459;-55
2022/10/24 03:55:07;;;;;;;2.80;1.23;;;;;;;12.29;71.79;96120.13;5131811;27;20433;-56
2022/10/24 03:57:35;;;;;;;0.50;0.40;;;;;;;12.27;71.32;96113.47;5131737;27;20905;-56
2022/10/24 04:00:05;;;;;;;0.40;0.30;;;;;;;12.50;71.20;96118.31;5132529;27;20439;-56
2022/10/24 04:02:33;;;;;;;0.53;0.50;;;;;;;12.28;71.65;96115.84;5132343;27;20433;-55
2022/10/24 04:05:07;;;;;;;0.87;0.50;;;;;;;12.24;71.50;96113.97;5131956;27;20444;-56
2022/10/24 04:07:35;;;;;;;0.40;0.30;;;;;;;12.43;71.27;96115.09;5131829;27;20454;-55
2022/10/24 04:10:05;;;;;;;2.20;0.50;;;;;;;12.42;70.80;96106.31;5131879;27;20426;-56
2022/10/24 04:12:34;;;;;;;0.67;0.30;;;;;;;12.31;71.64;96117.19;5132035;27;20436;-56
2022/10/24 04:15:02;;;;;;;0.50;0.40;;;;;;;12.43;71.34;96113.25;5132019;27;20780;-56
2022/10/24 04:17:32;;;;;;;0.40;0.30;;;;;;;12.23;72.63;96115.84;5132066;27;20541;-55
2022/10/24 04:20:00;;;;;;;0.40;0.30;;;;;;;12.38;72.60;96113.25;5131871;27;20418;-55
2022/10/24 04:22:28;;;;;;;0.60;0.53;;;;;;;12.39;71.69;96114.84;5131715;27;20436;-56
2022/10/24 04:24:57;;;;;;;1.10;1.07;;;;;;;12.37;71.53;96113.50;5131702;27;20487;-56
2022/10/24 04:27:27;;;;;;;3.20;0.73;;;;;;;12.40;70.98;96119.09;5131773;27;20470;-56
2022/10/24 04:29:55;;;;;;;0.67;0.67;;;;;;;12.35;71.47;96108.44;5132056;27;20422;-55
2022/10/24 04:32:23;;;;;;;3.67;3.40;;;;;;;11.69;74.62;96109.19;5131703;27;20437;-55
2022/10/24 04:34:51;;;;;;;5.13;4.13;;;;;;;11.10;79.02;96113.75;5131754;27;20426;-55
2022/10/24 04:37:19;;;;;;;5.50;4.77;;;;;;;11.42;79.42;96117.19;5131849;27;20473;-55
2022/10/24 04:39:48;;;;;;;3.30;2.97;;;;;;;11.77;76.22;96108.69;5134889;27;20534;-56
2022/10/24 04:42:16;;;;;;;4.47;4.30;;;;;;;11.67;76.13;96113.91;5135477;27;20437;-56
2022/10/24 04:44:46;;;;;;;3.60;2.23;;;;;;;11.88;75.24;96120.97;5135574;27;20424;-54
2022/10/24 04:47:14;;;;;;;2.93;2.83;;;;;;;11.80;75.25;96111.63;5136082;27;20452;-54
2022/10/24 04:49:43;;;;;;;4.77;3.13;;;;;;;11.36;77.88;96119.00;5135279;27;20837;-54
2022/10/24 04:52:11;;;;;;;5.30;5.10;;;;;;;11.20;78.87;96122.63;5135259;27;20429;-54
2022/10/24 04:54:39;;;;;;;2.40;1.60;;;;;;;11.62;76.75;96117.34;5135224;27;20433;-54
2022/10/24 04:57:07;;;;;;;8.63;1.53;;;;;;;10.87;82.25;96112.25;5135157;27;20437;-54
2022/10/24 04:59:36;;;;;;;0.80;0.80;;;;;;;11.28;79.39;96103.56;5134806;27;20436;-54
2022/10/24 05:02:05;;;;;;;3.00;0.77;;;;;;;11.49;78.63;96118.56;5134915;27;20430;-54
2022/10/24 05:04:34;;;;;;;1.13;1.07;;;;;;;11.47;79.31;96115.38;5134751;27;20462;-53
2022/10/24 05:07:02;;;;;;;1.07;1.07;;;;;;;11.75;77.68;96119.56;5134911;27;20434;-53
2022/10/24 05:09:30;;;;;;;0.77;0.77;;;;;;;11.64;78.48;96117.88;5134924;27;20427;-54
2022/10/24 05:11:59;;;;;;;1.20;1.10;;;;;;;11.61;78.28;96122.91;5135203;27;20499;-54
2022/10/24 05:14:27;;;;;;;1.80;1.70;;;;;;;11.48;78.76;96126.81;5134861;27;20418;-54
2022/10/24 05:16:56;;;;;;;1.20;1.20;;;;;;;11.79;77.22;96119.88;5135159;27;20549;-54
2022/10/24 05:19:25;;;;;;;5.47;0.80;;;;;;;11.81;76.61;96128.38;5134917;27;20468;-53
2022/10/24 05:21:54;;;;;;;0.80;0.77;;;;;;;11.82;77.21;96129.97;5135018;27;20423;-54
2022/10/24 05:24:22;;;;;;;2.10;1.53;;;;;;;12.00;76.90;96122.38;5134691;27;20472;-55
2022/10/24 05:26:50;;;;;;;2.93;2.73;;;;;;;12.29;74.80;96130.75;5134081;27;20441;-55
2022/10/24 05:29:18;;;;;;;0.50;0.40;;;;;;;12.54;73.53;96138.03;5134815;27;20418;-55
2022/10/24 05:31:47;;;;;;;1.27;1.27;;;;;;;12.42;74.34;96145.44;5134523;27;20421;-55
2022/10/24 05:34:15;;;;;;;0.83;0.83;;;;;;;12.31;75.23;96138.47;5134547;27;20421;-55
2022/10/24 05:36:44;;;;;;;1.77;1.63;;;;;;;12.57;74.94;96138.28;5134466;27;20431;-55
2022/10/24 05:39:13;;;;;;;1.27;1.03;;;;;;;12.83;73.54;96141.81;5134568;27;20478;-55
2022/10/24 05:41:41;;;;;;;2.20;2.00;;;;;;;13.06;72.79;96136.03;5134516;27;20436;-55
2022/10/24 05:44:14;;;;;;;1.47;1.37;;;;;;;13.32;71.81;96136.84;5134213;27;20454;-55
2022/10/24 05:46:43;;;;;;;1.60;1.03;;;;;;;13.77;69.91;96147.47;5134494;27;20437;-54
2022/10/24 05:49:13;;;;;;;6.90;1.47;;;;;;;13.69;68.13;96062.78;5134003;27;20437;-55
2022/10/24 05:51:41;;;;;;;1.70;1.70;;;;;;;14.14;67.96;96143.69;5134192;27;20923;-55
2022/10/24 05:54:11;;;;;;;1.80;1.70;;;;;;;14.49;66.91;96140.94;5134080;27;20437;-55
2022/10/24 05:56:44;;;;;;;3.10;2.90;;;;;;;14.36;67.06;96144.97;5134083;27;21005;-56
2022/10/24 05:59:13;;;;;;;3.23;1.70;;;;;;;14.64;66.84;96140.84;5134237;27;20484;-55
2022/10/24 06:01:41;;;;;;;3.63;3.53;;;;;;;14.37;67.00;96153.78;5134022;27;20450;-56
2022/10/24 06:04:10;;;;;;;0.50;0.40;;;;;;;15.07;66.25;96153.44;5134389;27;20434;-56
2022/10/24 06:06:42;;;;;;;1.70;1.60;;;;;;;15.32;64.64;96155.13;5133730;27;20468;-56
2022/10/24 06:09:13;;;;;;;0.70;0.70;;;;;;;15.45;63.86;96127.81;5134264;27;20430;-56
2022/10/24 06:11:42;;;;;;;2.30;1.17;;;;;;;15.82;63.56;96161.94;5134280;27;20425;-56
2022/10/24 06:14:11;;;;;;;0.83;0.83;;;;;;;16.21;61.81;96151.94;5133899;27;20437;-58
2022/10/24 06:16:39;;;;;;;4.23;0.80;;;;;;;16.05;61.57;96158.53;5134269;27;20440;-57
2022/10/24 06:19:07;;;;;;;2.40;2.30;;;;;;;16.35;60.83;96165.44;5133956;27;20469;-58
2022/10/24 06:21:35;;;;;;;2.47;1.27;;;;;;;16.34;61.17;96151.25;5134222;27;20766;-59
2022/10/24 06:24:04;;;;;;;1.07;0.80;;;;;;;16.21;61.14;96159.16;5133785;27;20430;-58
2022/10/24 06:26:34;;;;;;;2.20;1.50;;;;;;;16.16;60.93;96154.69;5134089;27;20429;-59
2022/10/24 06:29:02;;;;;;;1.17;1.10;;;;;;;16.19;61.10;96097.91;5133617;27;20433;-59
2022/10/24 06:31:30;;;;;;;0.80;0.80;;;;;;;16.76;60.55;96171.13;5133255;27;20430;-58
2022/10/24 06:33:59;;;;;;;1.30;1.30;;;;;;;16.47;60.11;96169.28;5133189;27;20436;-58
2022/10/24 06:36:27;;;;;;;14.30;1.93;;;;;;;16.41;60.23;96170.47;5133484;27;20435;-59
2022/10/24 06:38:58;;;;;;;1.23;1.23;;;;;;;17.33;58.59;96173.53;5133010;27;20474;-60
2022/10/24 06:41:26;;;;;;;1.30;1.03;;;;;;;17.18;57.49;96163.06;5133373;27;20427;-60
2022/10/24 06:43:56;;;;;;;0.60;0.60;;;;;;;17.20;57.48;96157.41;5133130;27;20427;-60
2022/10/24 06:46:25;;;;;;;1.00;1.00;;;;;;;17.75;56.68;96146.66;5133314;27;20949;-59
2022/10/24 06:48:54;;;;;;;2.00;1.07;;;;;;;18.16;55.38;96172.78;5133616;27;20414;-59
2022/10/24 06:51:23;;;;;;;1.73;0.60;;;;;;;18.25;54.79;96152.19;5132121;27;20430;-58
2022/10/24 06:53:52;;;;;;;0.50;0.37;;;;;;;18.57;55.07;96178.97;5133104;27;20426;-57
2022/10/24 06:56:20;;;;;;;0.60;0.50;;;;;;;18.81;53.40;96168.03;5133395;27;20415;-55
2022/10/24 06:58:48;;;;;;;0.87;0.87;;;;;;;18.91;52.74;96163.25;5133485;27;20459;-55
2022/10/24 07:01:20;;;;;;;5.80;2.67;;;;;;;19.02;51.99;96174.59;5131821;27;20436;-55
2022/10/24 07:03:49;;;;;;;0.80;0.80;;;;;;;19.05;52.22;96157.84;5131492;27;20425;-56
2022/10/24 07:06:19;;;;;;;0.70;0.60;;;;;;;20.67;50.64;96173.53;5131678;27;20442;-55
2022/10/24 07:08:48;;;;;;;0.50;0.43;;;;;;;20.59;49.52;96175.06;5132642;27;20831;-55
2022/10/24 07:11:16;;;;;;;0.73;0.60;;;;;;;19.27;51.11;96162.47;5132603;27;20430;-56
2022/10/24 07:13:44;;;;;;;0.80;0.80;;;;;;;19.76;51.21;96170.47;5132497;27;20428;-55
2022/10/24 07:16:13;;;;;;;1.03;0.60;;;;;;;19.68;50.52;96170.44;5132244;27;20432;-55
2022/10/24 07:18:43;;;;;;;1.13;0.97;;;;;;;19.92;50.37;96152.06;5132637;27;20465;-55
2022/10/24 07:21:15;;;;;;;1.63;1.53;;;;;;;21.21;48.70;96161.44;5132719;27;20427;-55
2022/10/24 07:23:43;;;;;;;0.60;0.50;;;;;;;21.33;47.87;96164.28;5132794;27;20425;-55
2022/10/24 07:26:14;;;;;;;1.00;0.90;;;;;;;21.09;47.06;96142.41;5132921;27;20478;-55
2022/10/24 07:28:45;;;;;;;2.53;0.50;;;;;;;21.78;46.60;96157.47;5132727;27;20415;-55
2022/10/24 07:31:17;;;;;;;0.67;0.53;;;;;;;21.80;46.40;96151.75;5132846;27;20426;-54
2022/10/24 07:33:46;;;;;;;11.70;1.43;;;;;;;22.14;44.97;96146.31;5132530;27;20431;-54
2022/10/24 07:36:19;;;;;;;0.80;0.60;;;;;;;22.97;43.73;96149.31;5132540;27;20426;-55
2022/10/24 07:38:47;;;;;;;0.70;0.63;;;;;;;22.12;44.28;96075.63;5132828;27;20469;-53
2022/10/24 07:41:16;;;;;;;0.50;0.50;;;;;;;23.54;41.98;96131.41;5132661;27;20450;-53
2022/10/24 07:43:45;;;;;;;0.70;0.47;;;;;;;23.18;43.17;96144.69;5132520;27;20431;-52
2022/10/24 07:46:15;;;;;;;0.60;0.60;;;;;;;23.31;42.87;96125.53;5132593;27;20485;-52
2022/10/24 07:48:44;;;;;;;0.63;0.63;;;;;;;23.78;42.00;96133.44;5132500;27;20884;-52
2022/10/24 07:51:14;;;;;;;0.50;0.50;;;;;;;25.19;42.71;96133.50;5132359;27;20930;-53
2022/10/24 07:53:43;;;;;;;0.53;0.40;;;;;;;24.69;39.48;96135.78;5132185;27;20423;-53
2022/10/24 07:56:13;;;;;;;1.00;0.77;;;;;;;25.73;38.65;96117.59;5132659;27;20439;-53
2022/10/24 07:58:42;;;;;;;1.47;0.90;;;;;;;24.99;38.40;96120.88;5132545;27;20463;-52
2022/10/24 08:01:12;;;;;;;5.83;1.37;;;;;;;24.86;39.15;96124.72;5132198;27;20427;-52
2022/10/24 08:03:41;;;;;;;0.90;0.40;;;;;;;24.84;39.15;96121.56;5132426;27;20434;-52
2022/10/24 08:06:11;;;;;;;0.60;0.60;;;;;;;25.66;39.11;96112.00;5132285;27;20427;-52
2022/10/24 08:08:41;;;;;;;0.97;0.97;;;;;;;25.75;38.90;96122.72;5132122;27;20429;-53
2022/10/24 08:11:11;;;;;;;7.67;0.50;;;;;;;25.75;38.56;96103.69;5132336;27;20427;-53
2022/10/24 08:13:39;;;;;;;0.50;0.50;;;;;;;25.24;38.64;96094.47;5135141;27;20441;-53
2022/10/24 08:16:11;;;;;;;0.60;0.60;;;;;;;25.65;37.82;96102.25;5136027;27;20434;-52
2022/10/24 08:18:39;;;;;;;0.73;0.73;;;;;;;26.03;37.07;96104.47;5136059;27;20421;-52
2022/10/24 08:21:10;;;;;;;1.03;1.03;;;;;;;25.92;37.63;96110.72;5136245;27;21001;-53
2022/10/24 08:23:42;;;;;;;1.13;1.13;;;;;;;26.94;36.22;96105.94;5135997;27;20522;-53
2022/10/24 08:26:14;;;;;;;1.23;0.83;;;;;;;26.68;36.37;96103.00;5135892;27;20474;-53
2022/10/24 08:28:43;;;;;;;0.80;0.80;;;;;;;27.50;35.90;96087.34;5136237;27;20455;-53
2022/10/24 08:31:14;;;;;;;0.50;0.30;;;;;;;28.12;34.14;96104.53;5135834;27;20435;-53
2022/10/24 08:33:43;;;;;;;3.90;0.83;;;;;;;28.37;33.51;96099.50;5135879;27;20415;-53
2022/10/24 08:36:20;;;;;;;0.50;0.50;;;;;;;27.33;34.30;96040.69;5136068;27;20438;-53
2022/10/24 08:38:49;;;;;;;0.50;0.50;;;;;;;27.36;34.67;96108.03;5135851;27;20435;-53
2022/10/24 08:41:27;;;;;;;1.17;0.80;;;;;;;27.12;34.68;96100.13;5135526;27;20477;-53
2022/10/24 08:43:58;;;;;;;0.50;0.50;;;;;;;27.70;34.49;96088.16;5135584;27;20437;-52
2022/10/24 08:46:38;;;;;;;0.97;0.70;;;;;;;28.60;33.82;96084.69;5135870;27;20431;-53
2022/10/24 08:49:17;;;;;;;0.50;0.50;;;;;;;28.14;33.60;96083.13;5135724;27;20946;-53
2022/10/24 08:51:51;;;;;;;1.20;0.60;;;;;;;28.33;33.67;96081.13;5135662;27;20434;-53
2022/10/24 08:54:25;;;;;;;0.70;0.70;;;;;;;28.29;34.13;96079.50;5135432;27;20423;-53
2022/10/24 08:56:56;;;;;;;1.43;1.33;;;;;;;27.95;33.45;96066.81;5135497;27;20942;-54
2022/10/24 08:59:28;;;;;;;0.93;0.93;;;;;;;27.77;33.71;96076.59;5135238;27;20431;-53
2022/10/24 09:02:00;;;;;;;0.40;0.30;;;;;;;28.09;33.47;96069.81;5135250;27;20947;-54
2022/10/24 09:04:40;;;;;;;0.70;0.70;;;;;;;28.87;32.70;96069.94;5135588;27;20422;-54
2022/10/24 09:07:16;;;;;;;0.60;0.60;;;;;;;29.32;32.87;96054.59;5135619;27;20435;-54
2022/10/24 09:09:49;;;;;;;0.50;0.50;;;;;;;29.48;31.82;96055.16;5135102;27;20513;-54
2022/10/24 09:12:19;;;;;;;0.40;0.30;;;;;;;30.63;30.44;96048.53;5134990;27;20797;-54
2022/10/24 09:14:55;;;;;;;0.40;0.30;;;;;;;30.64;29.92;95989.88;5135310;27;20427;-54
2022/10/24 09:17:25;;;;;;;0.60;0.60;;;;;;;30.59;30.95;96036.75;5134896;27;20437;-54
2022/10/24 09:19:57;;;;;;;0.40;0.30;;;;;;;30.98;29.87;96037.81;5134901;27;20469;-54
2022/10/24 09:22:29;;;;;;;3.20;0.73;;;;;;;30.39;31.07;96035.41;5135189;27;20430;-53
2022/10/24 09:25:02;;;;;;;0.40;0.30;;;;;;;29.55;30.87;96044.31;5133798;27;20480;-53
2022/10/24 09:27:34;;;;;;;0.40;0.40;;;;;;;29.98;30.68;96024.50;5134605;27;20785;-53
2022/10/24 09:30:02;;;;;;;0.43;0.40;;;;;;;30.06;31.19;96022.59;5135061;27;20426;-53
2022/10/24 09:32:33;;;;;;;0.43;0.40;;;;;;;29.96;30.49;96026.03;5134781;27;20432;-53
2022/10/24 09:35:04;;;;;;;0.40;0.40;;;;;;;30.41;30.10;96014.72;5134587;27;20423;-54
2022/10/24 09:37:40;;;;;;;0.50;0.40;;;;;;;30.76;29.56;96003.25;5134846;27;20427;-53
2022/10/24 09:40:22;;;;;;;0.60;0.60;;;;;;;31.17;29.60;96017.59;5134942;27;20500;-54
2022/10/24 09:42:56;;;;;;;0.40;0.30;;;;;;;31.77;28.62;96010.38;5134562;27;20426;-54
2022/10/24 09:45:41;;;;;;;0.30;0.30;;;;;;;33.20;27.56;95991.50;5134713;27;20440;-54
2022/10/24 09:48:23;;;;;;;0.40;0.33;;;;;;;33.16;27.66;95993.47;5134377;27;20945;-58
2022/10/24 09:50:59;;;;;;;1.20;1.00;;;;;;;31.52;27.93;95997.78;5134565;27;20443;-54
2022/10/24 09:53:31;;;;;;;0.40;0.40;;;;;;;31.80;28.08;95984.13;5134847;27;20414;-54
2022/10/24 09:56:11;;;;;;;0.40;0.40;;;;;;;31.81;27.38;95936.34;5134160;27;20917;-54
2022/10/24 09:58:40;;;;;;;0.50;0.33;;;;;;;33.60;26.24;95979.16;5134747;27;20882;-54
2022/10/24 10:01:21;;;;;;;2.20;0.40;;;;;;;32.75;26.16;95978.66;5134439;27;20462;-55
2022/10/24 10:04:00;;;;;;;0.40;0.30;;;;;;;33.25;26.71;95982.84;5134223;27;20520;-55
2022/10/24 10:06:44;;;;;;;0.77;0.70;;;;;;;32.46;26.30;95977.88;5134257;27;20427;-55
2022/10/24 10:09:13;;;;;;;0.43;0.33;;;;;;;32.09;27.14;95972.03;5134363;27;20655;-55
2022/10/24 10:11:43;;;;;;;0.40;0.40;;;;;;;32.35;27.28;95960.66;5134391;27;20434;-55
2022/10/24 10:14:31;;;;;;;3.50;2.60;;;;;;;33.01;26.61;95958.19;5133984;27;20886;-54
2022/10/24 10:17:03;;;;;;;0.40;0.40;;;;;;;32.76;27.20;95962.97;5133825;27;20942;-54
2022/10/24 10:19:37;;;;;;;0.43;0.40;;;;;;;33.59;26.67;95957.56;5134016;27;20426;-54
2022/10/24 10:22:20;;;;;;;0.40;0.30;;;;;;;32.71;27.17;95955.16;5134394;27;20462;-54
2022/10/24 10:24:49;;;;;;;0.43;0.43;;;;;;;33.23;26.39;95878.03;5133585;27;20492;-55
2022/10/24 10:27:33;;;;;;;0.50;0.50;;;;;;;33.92;26.46;95928.66;5133874;27;20850;-54
2022/10/24 10:30:20;;;;;;;0.60;0.53;;;;;;;32.29;26.85;95934.78;5133952;27;20786;-55
2022/10/24 10:33:00;;;;;;;0.40;0.30;;;;;;;32.33;27.68;95930.09;5133578;27;20417;-54
2022/10/24 10:35:36;;;;;;;0.73;0.73;;;;;;;32.21;27.40;95933.22;5133733;27;20452;-54
2022/10/24 10:38:25;;;;;;;3.30;0.40;;;;;;;32.53;27.07;95917.53;5133498;27;20424;-55
2022/10/24 10:41:01;;;;;;;0.63;0.63;;;;;;;31.96;27.92;95926.94;5133867;27;20213;-55
2022/10/24 10:43:38;;;;;;;5.13;0.43;;;;;;;33.53;26.35;95917.91;5133339;27;20191;-55
2022/10/24 10:46:16;;;;;;;2.63;0.60;;;;;;;33.83;26.89;95915.34;5133368;27;20419;-55
2022/10/24 10:48:58;;;;;;;0.60;0.60;;;;;;;32.72;26.94;95907.28;5133614;27;20429;-55
2022/10/24 10:51:40;;;;;;;5.30;0.90;;;;;;;32.09;27.90;95913.66;5133697;27;20189;-54
2022/10/24 10:54:24;;;;;;;0.50;0.33;;;;;;;33.06;27.25;95895.41;5133311;27;20189;-55
2022/10/24 10:56:55;;;;;;;0.53;0.40;;;;;;;32.40;27.60;95901.84;5133381;27;20193;-55
2022/10/24 10:59:48;;;;;;;0.50;0.40;;;;;;;32.97;27.46;95899.72;5132810;27;20188;-55
2022/10/24 11:02:34;;;;;;;0.50;0.40;;;;;;;34.02;27.11;95884.56;5133087;27;20201;-54
2022/10/24 11:05:16;;;;;;;0.60;0.60;;;;;;;33.94;27.04;95880.31;5133081;27;20185;-54
2022/10/24 11:07:51;;;;;;;4.23;0.47;;;;;;;32.58;26.54;95718.72;5131717;27;20185;-54
2022/10/24 11:10:22;;;;;;;0.57;0.50;;;;;;;33.75;26.57;95870.63;5133171;27;20211;-53
2022/10/24 11:12:52;;;;;;;3.73;0.50;;;;;;;31.78;28.49;95877.59;5131805;27;20644;-54
2022/10/24 11:15:26;;;;;;;0.50;0.40;;;;;;;32.67;27.92;95861.81;5133029;27;20192;-55
2022/10/24 11:18:00;;;;;;;0.40;0.40;;;;;;;34.44;26.73;95864.91;5132476;27;20633;-55
2022/10/24 11:20:34;;;;;;;0.60;0.47;;;;;;;34.14;26.16;95818.03;5132049;27;20614;-54
2022/10/24 11:23:12;;;;;;;0.30;0.30;;;;;;;30.67;26.82;95422.66;5132498;27;20633;-55
2022/10/24 11:25:45;;;;;;;0.70;0.30;;;;;;;33.81;26.55;95841.50;5132046;27;20232;-55
2022/10/24 11:28:20;;;;;;;0.50;0.43;;;;;;;34.58;25.71;95839.22;5132234;27;20181;-55
2022/10/24 11:30:55;;;;;;;0.40;0.40;;;;;;;34.53;26.24;95850.66;5132597;27;20558;-55
2022/10/24 11:33:28;;;;;;;0.50;0.50;;;;;;;33.29;27.17;95798.72;5132562;27;20203;-55
2022/10/24 11:36:05;;;;;;;1.20;0.63;;;;;;;32.10;27.59;95816.50;5132096;27;20208;-54
2022/10/24 11:38:37;;;;;;;1.80;1.23;;;;;;;32.54;27.96;95833.22;5132264;27;20185;-54
2022/10/24 11:41:24;;;;;;;1.90;1.70;;;;;;;33.54;26.76;95788.31;5132529;27;20208;-54
2022/10/24 11:43:55;;;;;;;0.60;0.50;;;;;;;34.53;25.77;95825.09;5130237;27;20201;-54
2022/10/24 11:46:32;;;;;;;0.70;0.70;;;;;;;34.92;25.62;95815.16;5132614;27;20197;-54
2022/10/24 11:49:08;;;;;;;0.53;0.50;;;;;;;33.60;26.40;95819.69;5139084;27;20200;-54
2022/10/24 11:51:42;;;;;;;0.30;0.30;;;;;;;33.22;27.30;95816.03;5139337;27;20189;-55
2022/10/24 11:54:17;;;;;;;0.30;0.30;;;;;;;34.02;27.04;95812.25;5139189;27;20195;-54
2022/10/24 11:56:50;;;;;;;0.63;0.40;;;;;;;33.24;27.54;95805.41;5138037;27;20197;-54